Procure no Apolo11
Meteógrafos Informações Meteorológicas em tempo real
Aeroporto de Congonhas
01-04-2023 04:55 BRT (UTC-3)

Temperatura atual: 20 graus 68 F    Umidade relativa: 93 %
Velocidade do vento: 04 nós 7 Km/h    Direção: 330 graus NNW
Ajuste do altímetro ..: 1016 HPA
Visibilidade: Regular    Tempo presente: Parcialmente Nublado

Observação
Céu nublado a 400 Pés.
Data Hora BRTTempo°CUmidadePressãoVentoVisib.
01/04 - 03:55   Não Disponível 19° 93% 1016 Norte/0 km/h 6000
01/04 - 02:55   Não Disponível 20° 93% 1017 Este-sudeste/1 km/h 6000
01/04 - 01:55   Não Disponível 20° 93% 1017 Nordeste/5 km/h 7000
01/04 - 00:55   Não Disponível 20° 93% 1018 /3 km/h 6000
31/03 - 23:55   Quase sem nuvens 21° 88% 1019 Sudeste/3 km/h 6000
31/03 - 22:55   Não Disponível 21° 88% 1019 Leste/5 km/h 9999
31/03 - 21:55   Parcialmente Nublado 21° 88% 1019 Leste/5 km/h 9000
31/03 - 20:55   Parcialmente Nublado 21° 88% 1018 Sudeste/7 km/h 9999
31/03 - 19:55   Não Disponível 22° 83% 1018 Este-sudeste/9 km/h OK
31/03 - 18:55   Poucas nuvens esparsas 22° 83% 1017 Sul-sudeste/7 km/h 9000
31/03 - 17:55   Poucas nuvens esparsas 22° 83% 1017 Sul-sudeste/7 km/h 9000
31/03 - 16:55   Trovoadas na vizinhança 21° 88% 1017 Este-sudeste/5 km/h 9999
31/03 - 15:55   Trovoadas na vizinhança 21° 88% 1016 Sul-sudeste/7 km/h 9999
31/03 - 14:55   Chuva fraca e trovoadas 20° 88% 1016 Sul-sudeste/12 km/h OK
31/03 - 13:55   Trovoadas 25° 65% 1017 Sul/19 km/h 9999
31/03 - 12:55   Parcialmente Nublado 28° 54% 1018 Noroeste/19 km/h 9999
31/03 - 11:55   Poucas nuvens esparsas 27° 61% 1019 Noroeste/14 km/h 9999
31/03 - 10:55   Não Disponível 25° 65% 1019 Norte-nordeste/9 km/h 9000
31/03 - 09:55   Não Disponível 25° 65% 1019 Norte-nordeste/7 km/h 9000
31/03 - 08:55   Parcialmente Nublado 22° 73% 1019 Nordeste/7 km/h OK
31/03 - 07:55   Poucas nuvens esparsas 21° 77% 1018 Norte-nordeste/12 km/h OK
31/03 - 06:55   Poucas nuvens esparsas 21° 77% 1018 Nordeste/12 km/h 9999
31/03 - 05:55   Céu Limpo 21° 77% 1017 Este-nordeste/9 km/h CAVO
31/03 - 04:55   Céu Limpo 21° 77% 1017 Nordeste/7 km/h OK

Termo de Uso  |   Links Úteis  |   Imprensa  |  Anuncie  |  Fale Conosco  |  Versão Celular  |   Política de Privacidade

Apolo11.com - Todos os direitos reservados - 2000 - 2023

"A loucura é hereditária. Você pode pegá-la de seus filhos" - Sam Levenson -